Time;durP1;ratioP1;P1;durP2;ratioP2;P2;SDS_P1;SDS_P2;PMS_P1;PMS_P2;Temp;Humidity;BMP_temperature;BMP_pressure;BME280_temperature;BME280_humidity;BME280_pressure;Samples;Min_cycle;Max_cycle;Signal;HPM_P1;HPM_P2
2024/03/09 00:00:23;;;;;;;;;;;2.50;1.00;;;;;;5037125;28;19959;-73
2024/03/09 00:02:51;;;;;;;;;;;2.50;1.00;;;;;;5044808;28;20452;-73
2024/03/09 00:05:17;;;;;;;;;;;2.60;1.00;;;;;;5037761;28;19909;-73
2024/03/09 00:07:44;;;;;;;;;;;2.50;1.00;;;;;;5054862;28;19995;-73
2024/03/09 00:10:11;;;;;;;;;;;2.50;1.00;;;;;;5040739;28;20372;-73
2024/03/09 00:12:37;;;;;;;;;;;2.50;1.00;;;;;;5035874;28;19913;-74
2024/03/09 00:15:11;;;;;;;;;;;2.50;1.00;;;;;;5038194;28;19920;-75
2024/03/09 00:17:51;;;;;;;;;;;2.50;1.00;;;;;;5039642;28;20003;-75
2024/03/09 00:20:22;;;;;;;;;;;2.50;1.00;;;;;;5041588;28;20002;-75
2024/03/09 00:22:55;;;;;;;;;;;2.50;1.00;;;;;;5055650;28;19909;-75
2024/03/09 00:25:50;;;;;;;;;;;2.50;1.00;;;;;;5051979;28;19923;-75
2024/03/09 00:28:50;;;;;;;;;;;2.50;1.00;;;;;;5038378;28;19996;-76
2024/03/09 00:34:20;;;;;;;;;;;2.50;1.00;;;;;;5038529;28;19954;-76
2024/03/09 00:36:51;;;;;;;;;;;2.50;1.00;;;;;;5040051;28;20352;-76
2024/03/09 00:39:20;;;;;;;;;;;2.50;1.00;;;;;;5025630;28;19912;-75
2024/03/09 00:42:20;;;;;;;;;;;2.50;1.00;;;;;;5046069;28;19967;-75
2024/03/09 00:44:51;;;;;;;;;;;2.50;1.00;;;;;;5033282;28;20011;-73
2024/03/09 00:47:16;;;;;;;;;;;2.40;1.00;;;;;;5042696;28;20365;-73
2024/03/09 00:49:44;;;;;;;;;;;2.40;1.00;;;;;;5042555;28;19915;-73
2024/03/09 00:52:10;;;;;;;;;;;2.40;1.00;;;;;;5054317;28;19913;-73
2024/03/09 00:54:38;;;;;;;;;;;2.40;1.00;;;;;;5042709;28;20410;-73
2024/03/09 00:57:10;;;;;;;;;;;2.40;1.00;;;;;;5037347;28;19995;-73
2024/03/09 00:59:35;;;;;;;;;;;2.40;1.00;;;;;;5035212;28;19917;-73
2024/03/09 01:02:02;;;;;;;;;;;2.30;1.00;;;;;;5041991;28;19909;-74
2024/03/09 01:04:28;;;;;;;;;;;2.30;1.00;;;;;;5040331;28;19913;-73
2024/03/09 01:06:56;;;;;;;;;;;2.30;1.00;;;;;;5041120;28;19919;-73
2024/03/09 01:09:22;;;;;;;;;;;2.20;1.00;;;;;;5035120;28;20373;-74
2024/03/09 01:11:48;;;;;;;;;;;2.20;1.00;;;;;;5049306;28;20398;-73
2024/03/09 01:14:50;;;;;;;;;;;2.20;1.00;;;;;;5043633;28;19960;-75
2024/03/09 01:17:21;;;;;;;;;;;2.20;1.00;;;;;;5042230;28;20019;-75
2024/03/09 01:20:20;;;;;;;;;;;2.10;1.00;;;;;;5028513;28;19910;-75
2024/03/09 01:22:51;;;;;;;;;;;2.10;1.00;;;;;;5032006;28;20364;-75
2024/03/09 01:25:20;;;;;;;;;;;2.00;1.00;;;;;;5034615;28;19913;-75
2024/03/09 01:27:50;;;;;;;;;;;2.00;1.00;;;;;;5034439;28;20341;-75
2024/03/09 01:30:16;;;;;;;;;;;2.00;1.00;;;;;;5047134;28;19909;-73
2024/03/09 01:32:45;;;;;;;;;;;2.00;1.00;;;;;;5036326;28;19917;-73
2024/03/09 01:35:12;;;;;;;;;;;2.00;1.00;;;;;;5035590;28;19913;-73
2024/03/09 01:37:37;;;;;;;;;;;2.00;1.00;;;;;;5034144;28;19999;-73
2024/03/09 01:40:10;;;;;;;;;;;2.00;1.00;;;;;;5044990;28;20348;-73
2024/03/09 01:42:35;;;;;;;;;;;1.90;1.00;;;;;;5028598;28;19939;-73
2024/03/09 01:45:20;;;;;;;;;;;1.90;1.00;;;;;;5036122;28;20378;-75
2024/03/09 01:47:51;;;;;;;;;;;1.90;1.00;;;;;;5038067;28;19966;-76
2024/03/09 01:50:22;;;;;;;;;;;1.90;1.00;;;;;;5042395;28;20004;-77
2024/03/09 01:52:50;;;;;;;;;;;1.90;1.00;;;;;;5033989;28;19914;-75
2024/03/09 01:55:20;;;;;;;;;;;1.90;1.00;;;;;;5033964;28;20347;-75
2024/03/09 01:57:46;;;;;;;;;;;1.90;1.00;;;;;;5018850;28;19952;-75
2024/03/09 02:00:14;;;;;;;;;;;1.90;1.00;;;;;;5037877;28;19913;-75
2024/03/09 02:02:39;;;;;;;;;;;1.80;1.00;;;;;;5039155;28;19913;-75
2024/03/09 02:05:20;;;;;;;;;;;1.80;1.00;;;;;;5050140;28;19923;-75
2024/03/09 02:08:05;;;;;;;;;;;1.80;1.00;;;;;;5039923;28;19913;-76
2024/03/09 02:13:49;;;;;;;;;;;1.80;1.00;;;;;;5014060;28;19944;-76
2024/03/09 02:22:21;;;;;;;;;;;1.90;1.00;;;;;;5033661;28;19920;-75
2024/03/09 02:25:02;;;;;;;;;;;1.90;1.00;;;;;;5037071;28;19920;-75
2024/03/09 02:27:32;;;;;;;;;;;1.90;1.00;;;;;;5049052;28;20249;-75
2024/03/09 02:29:58;;;;;;;;;;;1.90;1.00;;;;;;5046881;28;19920;-73
2024/03/09 02:32:24;;;;;;;;;;;1.90;1.00;;;;;;5033184;28;19913;-73
2024/03/09 02:34:49;;;;;;;;;;;1.90;1.00;;;;;;5043627;28;19928;-74
2024/03/09 02:37:17;;;;;;;;;;;1.90;1.00;;;;;;5040165;28;19939;-73
2024/03/09 02:39:45;;;;;;;;;;;1.90;1.00;;;;;;5023832;28;19913;-74
2024/03/09 02:42:11;;;;;;;;;;;1.90;1.00;;;;;;5048248;28;20472;-73
2024/03/09 02:44:40;;;;;;;;;;;1.90;1.00;;;;;;5037518;28;19909;-73
2024/03/09 02:47:07;;;;;;;;;;;2.00;1.00;;;;;;5050030;28;19912;-74
2024/03/09 02:49:35;;;;;;;;;;;1.90;1.00;;;;;;5034145;28;20003;-73
2024/03/09 02:52:01;;;;;;;;;;;1.90;1.00;;;;;;5047815;28;19919;-73
2024/03/09 02:54:27;;;;;;;;;;;1.90;1.00;;;;;;5043111;28;19999;-74
2024/03/09 02:56:58;;;;;;;;;;;1.90;1.00;;;;;;5047011;28;19909;-73
2024/03/09 02:59:23;;;;;;;;;;;1.90;1.00;;;;;;5040594;28;19960;-73
2024/03/09 03:04:51;;;;;;;;;;;1.80;1.00;;;;;;5035487;28;20021;-75
2024/03/09 03:10:20;;;;;;;;;;;1.80;1.00;;;;;;5042868;28;20024;-76
2024/03/09 03:15:49;;;;;;;;;;;1.80;1.00;;;;;;5036756;28;19981;-75
2024/03/09 03:24:21;;;;;;;;;;;1.80;1.00;;;;;;5026980;28;20387;-76
2024/03/09 03:29:51;;;;;;;;;;;1.80;1.00;;;;;;5056556;28;19915;-76
2024/03/09 03:41:29;;;;;;;;;;;1.70;1.00;;;;;;5036477;28;20320;-76
2024/03/09 03:44:14;;;;;;;;;;;1.70;1.00;;;;;;5045472;28;19908;-76
2024/03/09 03:50:02;;;;;;;;;;;1.70;1.00;;;;;;5035498;28;20375;-76
2024/03/09 03:52:40;;;;;;;;;;;1.70;1.00;;;;;;5037106;28;19964;-76
2024/03/09 04:01:11;;;;;;;;;;;1.80;1.00;;;;;;5036123;28;20324;-73
2024/03/09 04:03:38;;;;;;;;;;;1.80;1.00;;;;;;5036185;28;19909;-74
2024/03/09 04:06:09;;;;;;;;;;;1.80;1.00;;;;;;5044685;28;19939;-73
2024/03/09 04:08:34;;;;;;;;;;;1.80;1.00;;;;;;5047759;28;19921;-74
2024/03/09 04:11:00;;;;;;;;;;;1.80;1.00;;;;;;5053214;28;19999;-74
2024/03/09 04:13:27;;;;;;;;;;;1.80;1.00;;;;;;5035795;28;20364;-73
2024/03/09 04:15:53;;;;;;;;;;;1.80;1.00;;;;;;5047231;28;20280;-73
2024/03/09 04:18:19;;;;;;;;;;;1.80;1.00;;;;;;5028734;28;19920;-74
2024/03/09 04:20:44;;;;;;;;;;;1.90;1.00;;;;;;5051113;28;20301;-74
2024/03/09 04:23:15;;;;;;;;;;;1.90;1.00;;;;;;5037364;28;20025;-73
2024/03/09 04:25:46;;;;;;;;;;;1.90;1.00;;;;;;5052441;28;19948;-73
2024/03/09 04:28:30;;;;;;;;;;;1.90;1.00;;;;;;5042134;28;20349;-74
2024/03/09 04:34:02;;;;;;;;;;;1.90;1.00;;;;;;5040260;28;19967;-75
2024/03/09 04:36:56;;;;;;;;;;;1.90;1.00;;;;;;5039372;28;20364;-76
2024/03/09 04:39:44;;;;;;;;;;;2.00;1.00;;;;;;5043365;28;19915;-75
2024/03/09 04:45:13;;;;;;;;;;;1.90;1.00;;;;;;5037449;28;19916;-75
2024/03/09 04:47:39;;;;;;;;;;;2.00;1.00;;;;;;5051654;28;20265;-74
2024/03/09 04:50:07;;;;;;;;;;;2.00;1.00;;;;;;5035316;28;19920;-73
2024/03/09 04:52:33;;;;;;;;;;;1.90;1.00;;;;;;5049472;28;19948;-74
2024/03/09 04:54:58;;;;;;;;;;;1.90;1.00;;;;;;5054793;28;19947;-73
2024/03/09 04:57:28;;;;;;;;;;;2.00;1.00;;;;;;5040754;28;19913;-73
2024/03/09 04:59:54;;;;;;;;;;;1.90;1.00;;;;;;5047399;28;19913;-73
2024/03/09 05:06:00;;;;;;;;;;;1.90;1.00;;;;;;5048199;28;19915;-75
2024/03/09 05:08:25;;;;;;;;;;;1.90;1.00;;;;;;5046336;28;19921;-76
2024/03/09 05:14:29;;;;;;;;;;;2.00;1.00;;;;;;5038091;28;19920;-76
2024/03/09 05:20:00;;;;;;;;;;;2.00;1.00;;;;;;5044972;28;19983;-75
2024/03/09 05:25:30;;;;;;;;;;;2.10;1.00;;;;;;5041843;28;19931;-76
2024/03/09 05:30:59;;;;;;;;;;;2.20;1.00;;;;;;5034333;28;19932;-76
2024/03/09 05:33:27;;;;;;;;;;;2.30;1.00;;;;;;5038837;28;19916;-73
2024/03/09 05:35:53;;;;;;;;;;;2.40;1.00;;;;;;5053557;28;20271;-74
2024/03/09 05:38:18;;;;;;;;;;;2.40;1.00;;;;;;5048245;28;19909;-74
2024/03/09 05:40:50;;;;;;;;;;;2.50;1.00;;;;;;5035881;28;19917;-73
2024/03/09 05:43:17;;;;;;;;;;;2.60;1.00;;;;;;5048859;28;19909;-74
2024/03/09 05:45:42;;;;;;;;;;;2.60;1.00;;;;;;5034168;28;19914;-74
2024/03/09 05:48:14;;;;;;;;;;;2.70;1.00;;;;;;5036948;28;19920;-76
2024/03/09 05:54:15;;;;;;;;;;;2.80;1.00;;;;;;5049395;28;19966;-77
2024/03/09 05:59:43;;;;;;;;;;;3.00;1.00;;;;;;5052714;28;19920;-77
2024/03/09 06:02:09;;;;;;;;;;;3.00;1.00;;;;;;5041010;28;19913;-74
2024/03/09 06:04:56;;;;;;;;;;;3.00;1.00;;;;;;5041209;28;19913;-74
2024/03/09 06:07:22;;;;;;;;;;;3.00;1.00;;;;;;5043045;28;19914;-74
2024/03/09 06:09:48;;;;;;;;;;;3.10;1.00;;;;;;5033210;28;19921;-74
2024/03/09 06:12:15;;;;;;;;;;;3.10;1.00;;;;;;5039961;28;20394;-74
2024/03/09 06:14:44;;;;;;;;;;;3.10;1.00;;;;;;5046390;28;20008;-75
2024/03/09 06:17:11;;;;;;;;;;;3.20;1.00;;;;;;5040801;28;19919;-74
2024/03/09 06:19:36;;;;;;;;;;;3.30;1.00;;;;;;5039909;28;19963;-74
2024/03/09 06:22:02;;;;;;;;;;;3.50;1.00;;;;;;5036519;28;19917;-75
2024/03/09 06:24:33;;;;;;;;;;;3.50;1.00;;;;;;5044033;28;19919;-74
2024/03/09 06:27:03;;;;;;;;;;;3.60;1.00;;;;;;5040861;28;19976;-75
2024/03/09 06:29:40;;;;;;;;;;;3.80;1.00;;;;;;5039326;28;19913;-75
2024/03/09 06:32:15;;;;;;;;;;;3.90;1.00;;;;;;5039109;28;20365;-75
2024/03/09 06:37:40;;;;;;;;;;;4.10;1.00;;;;;;5044332;28;19913;-75
2024/03/09 06:40:33;;;;;;;;;;;4.30;1.00;;;;;;5048456;28;20008;-77
2024/03/09 06:43:05;;;;;;;;;;;4.40;1.00;;;;;;5057462;28;19909;-76
2024/03/09 06:45:31;;;;;;;;;;;4.60;1.00;;;;;;5042326;28;19916;-75
2024/03/09 06:54:11;;;;;;;;;;;4.80;1.00;;;;;;5034853;28;19924;-77
2024/03/09 06:56:39;;;;;;;;;;;4.90;1.00;;;;;;5035720;28;19919;-76
2024/03/09 06:59:21;;;;;;;;;;;5.00;1.00;;;;;;5025705;28;20321;-76
2024/03/09 07:02:10;;;;;;;;;;;5.10;1.00;;;;;;5042494;28;19940;-76
2024/03/09 07:04:39;;;;;;;;;;;5.20;1.00;;;;;;5042538;28;19916;-73
2024/03/09 07:07:04;;;;;;;;;;;5.40;1.00;;;;;;5041025;28;20459;-73
2024/03/09 07:09:30;;;;;;;;;;;5.40;1.00;;;;;;5045996;28;20012;-73
2024/03/09 07:11:55;;;;;;;;;;;5.50;1.00;;;;;;5035894;28;19917;-74
2024/03/09 07:14:21;;;;;;;;;;;5.60;1.00;;;;;;5038226;28;19921;-73
2024/03/09 07:16:51;;;;;;;;;;;5.60;1.00;;;;;;5033533;28;19996;-73
2024/03/09 07:19:21;;;;;;;;;;;5.70;1.00;;;;;;5039198;28;20052;-73
2024/03/09 07:21:47;;;;;;;;;;;5.70;1.00;;;;;;5037765;28;20403;-74
2024/03/09 07:24:14;;;;;;;;;;;5.80;1.00;;;;;;5039756;28;20300;-74
2024/03/09 07:26:39;;;;;;;;;;;5.90;1.00;;;;;;5053897;28;20001;-74
2024/03/09 07:29:05;;;;;;;;;;;5.90;1.00;;;;;;5042361;28;19956;-73
2024/03/09 07:31:31;;;;;;;;;;;6.00;1.00;;;;;;5036612;28;19910;-73
2024/03/09 07:33:57;;;;;;;;;;;6.10;1.00;;;;;;5037983;28;19924;-74
2024/03/09 07:36:23;;;;;;;;;;;6.10;1.00;;;;;;5036957;28;19960;-74
2024/03/09 07:38:51;;;;;;;;;;;6.20;1.00;;;;;;5052657;28;19909;-74
2024/03/09 07:41:17;;;;;;;;;;;6.30;1.00;;;;;;5061466;28;19916;-74
2024/03/09 07:43:46;;;;;;;;;;;6.30;1.00;;;;;;5049078;28;19912;-73
2024/03/09 07:46:15;;;;;;;;;;;6.40;1.00;;;;;;5047461;28;19916;-74
2024/03/09 07:48:41;;;;;;;;;;;6.40;1.00;;;;;;5049690;28;19916;-74
2024/03/09 07:51:08;;;;;;;;;;;6.50;1.00;;;;;;5031508;28;19918;-74
2024/03/09 07:53:34;;;;;;;;;;;6.60;1.00;;;;;;5036616;28;20368;-74
2024/03/09 07:56:03;;;;;;;;;;;6.60;1.00;;;;;;5035612;28;19913;-74
2024/03/09 07:58:28;;;;;;;;;;;6.70;1.00;;;;;;5039264;28;19962;-74
2024/03/09 08:00:54;;;;;;;;;;;6.70;1.00;;;;;;5041781;28;19913;-74
2024/03/09 08:09:33;;;;;;;;;;;6.70;1.00;;;;;;5028483;28;19983;-75
2024/03/09 08:15:29;;;;;;;;;;;6.80;1.00;;;;;;5035492;28;19935;-76
2024/03/09 08:17:56;;;;;;;;;;;6.80;1.00;;;;;;5049383;28;19910;-74
2024/03/09 08:20:33;;;;;;;;;;;6.70;1.00;;;;;;5001584;28;19963;-75
2024/03/09 08:23:09;;;;;;;;;;;6.70;1.00;;;;;;5039779;28;19917;-76
2024/03/09 08:26:09;;;;;;;;;;;6.70;1.00;;;;;;5043143;28;20328;-75
2024/03/09 08:31:38;;;;;;;;;;;6.80;1.00;;;;;;5016787;28;19920;-76
2024/03/09 08:34:06;;;;;;;;;;;6.90;1.00;;;;;;5048755;28;19913;-75
2024/03/09 08:39:35;;;;;;;;;;;7.50;1.00;;;;;;5047749;28;19916;-76
2024/03/09 08:42:01;;;;;;;;;;;7.50;1.00;;;;;;5035663;28;20380;-76
2024/03/09 08:50:59;;;;;;;;;;;8.00;1.00;;;;;;5054990;28;19932;-77
2024/03/09 08:56:28;;;;;;;;;;;7.90;1.00;;;;;;5054800;28;19932;-75
2024/03/09 09:02:33;;;;;;;;;;;8.10;1.00;;;;;;5040727;28;19983;-81
2024/03/09 09:08:36;;;;;;;;;;;8.10;1.00;;;;;;5048940;28;20283;-76
2024/03/09 09:11:02;;;;;;;;;;;8.20;1.00;;;;;;5051528;28;20364;-75
2024/03/09 09:13:33;;;;;;;;;;;8.40;1.00;;;;;;5034424;28;19964;-74
2024/03/09 09:16:09;;;;;;;;;;;8.40;1.00;;;;;;5034855;28;20260;-74
2024/03/09 09:18:51;;;;;;;;;;;8.40;1.00;;;;;;5043493;28;19952;-76
2024/03/09 09:24:33;;;;;;;;;;;8.70;1.00;;;;;;5017267;28;19927;-76
2024/03/09 09:33:32;;;;;;;;;;;8.80;1.00;;;;;;5014208;28;19920;-76
2024/03/09 09:42:28;;;;;;;;;;;9.20;1.00;;;;;;5038447;28;19960;-76
2024/03/09 09:47:59;;;;;;;;;;;9.30;1.00;;;;;;5043740;28;19936;-76
2024/03/09 10:06:00;;;;;;;;;;;9.60;1.00;;;;;;5029945;28;20034;-76
2024/03/09 10:08:27;;;;;;;;;;;9.70;1.00;;;;;;5049287;28;19921;-77
2024/03/09 10:11:15;;;;;;;;;;;9.90;1.00;;;;;;5044962;28;20011;-76
2024/03/09 10:13:41;;;;;;;;;;;9.90;1.00;;;;;;5033840;28;19920;-77
2024/03/09 10:19:15;;;;;;;;;;;10.10;1.00;;;;;;5046360;28;19919;-75
2024/03/09 10:21:41;;;;;;;;;;;10.10;1.00;;;;;;5034358;28;19970;-74
2024/03/09 10:24:07;;;;;;;;;;;10.30;1.00;;;;;;5047327;28;19921;-75
2024/03/09 10:26:33;;;;;;;;;;;10.30;1.00;;;;;;5034283;28;19909;-75
2024/03/09 10:28:59;;;;;;;;;;;10.30;1.00;;;;;;5043966;28;19913;-75
2024/03/09 10:31:27;;;;;;;;;;;13.10;1.00;;;;;;5038527;28;19910;-75
2024/03/09 10:33:57;;;;;;;;;;;10.50;1.00;;;;;;5038396;28;19917;-75
2024/03/09 10:36:27;;;;;;;;;;;10.50;1.00;;;;;;5033303;28;19932;-75
2024/03/09 10:38:57;;;;;;;;;;;10.40;1.00;;;;;;5032579;28;20368;-75
2024/03/09 10:41:23;;;;;;;;;;;10.50;1.00;;;;;;5033474;28;19924;-75
2024/03/09 10:43:49;;;;;;;;;;;10.50;1.00;;;;;;5032369;28;19909;-75
2024/03/09 10:46:38;;;;;;;;;;;10.60;1.00;;;;;;5041800;28;19909;-75
2024/03/09 10:49:04;;;;;;;;;;;10.60;1.00;;;;;;5040492;28;19908;-75
2024/03/09 10:54:45;;;;;;;;;;;10.80;1.00;;;;;;5043283;28;19919;-76
2024/03/09 10:57:22;;;;;;;;;;;10.80;1.00;;;;;;5033812;28;19913;-76
2024/03/09 11:05:53;;;;;;;;;;;11.10;1.00;;;;;;5037207;28;20550;-75
2024/03/09 11:08:21;;;;;;;;;;;11.20;1.00;;;;;;5054333;28;19913;-75
2024/03/09 11:10:47;;;;;;;;;;;11.30;1.00;;;;;;5046690;28;19913;-75
2024/03/09 11:13:21;;;;;;;;;;;11.40;1.00;;;;;;5054217;28;19913;-75
2024/03/09 11:15:58;;;;;;;;;;;11.40;1.00;;;;;;5044997;28;19909;-75
2024/03/09 11:18:27;;;;;;;;;;;11.50;1.00;;;;;;5036895;28;19932;-75
2024/03/09 11:20:59;;;;;;;;;;;11.70;1.00;;;;;;5046949;28;19916;-75
2024/03/09 11:23:25;;;;;;;;;;;11.70;1.00;;;;;;5045978;28;19923;-75
2024/03/09 11:25:57;;;;;;;;;;;11.80;1.00;;;;;;5044588;28;19914;-75
2024/03/09 11:28:59;;;;;;;;;;;11.80;1.00;;;;;;5051585;28;19995;-75
2024/03/09 11:31:39;;;;;;;;;;;12.00;1.00;;;;;;4976069;28;20254;-75
2024/03/09 11:34:15;;;;;;;;;;;12.00;1.00;;;;;;4977862;28;19918;-75
2024/03/09 11:37:04;;;;;;;;;;;12.10;1.00;;;;;;4985705;28;19927;-75
2024/03/09 11:39:45;;;;;;;;;;;12.20;1.00;;;;;;4988766;28;19911;-75
2024/03/09 11:42:18;;;;;;;;;;;12.10;1.00;;;;;;4990540;28;19916;-75
2024/03/09 11:44:57;;;;;;;;;;;12.30;1.00;;;;;;4986162;28;19960;-75
2024/03/09 11:47:23;;;;;;;;;;;12.30;1.00;;;;;;4988640;28;19917;-75
2024/03/09 11:49:48;;;;;;;;;;;12.50;1.00;;;;;;4987035;28;19910;-74
2024/03/09 11:52:14;;;;;;;;;;;12.50;1.00;;;;;;4983775;28;19918;-75
2024/03/09 11:54:40;;;;;;;;;;;12.70;1.00;;;;;;4978810;28;19910;-75
2024/03/09 11:57:25;;;;;;;;;;;12.60;1.00;;;;;;5001026;28;19914;-75
2024/03/09 11:59:50;;;;;;;;;;;12.70;1.00;;;;;;4973458;28;19929;-76
2024/03/09 12:02:23;;;;;;;;;;;12.80;1.00;;;;;;4988202;28;19914;-75
2024/03/09 12:04:48;;;;;;;;;;;12.80;1.00;;;;;;4986158;28;19917;-75
2024/03/09 12:07:15;;;;;;;;;;;13.00;1.00;;;;;;5044050;28;19912;-77
2024/03/09 12:10:00;;;;;;;;;;;13.00;1.00;;;;;;5050528;28;19917;-78
2024/03/09 12:12:27;;;;;;;;;;;12.90;1.00;;;;;;5042570;28;20376;-75
2024/03/09 12:15:03;;;;;;;;;;;12.90;1.00;;;;;;5046029;28;19968;-76
2024/03/09 12:17:51;;;;;;;;;;;13.00;1.00;;;;;;5040777;28;20417;-77
2024/03/09 12:20:18;;;;;;;;;;;13.00;1.00;;;;;;5042647;28;19958;-74
2024/03/09 12:22:43;;;;;;;;;;;13.10;1.00;;;;;;5047000;28;19920;-75
2024/03/09 12:25:09;;;;;;;;;;;13.40;1.00;;;;;;5035679;28;19910;-77
2024/03/09 12:30:51;;;;;;;;;;;13.50;1.00;;;;;;5049146;28;19916;-76
2024/03/09 13:00:54;;;;;;;;;;;14.70;1.00;;;;;;5021866;28;19915;-77
2024/03/09 13:06:22;;;;;;;;;;;14.90;1.00;;;;;;5035421;28;19920;-77
2024/03/09 13:09:03;;;;;;;;;;;14.80;1.00;;;;;;5034339;28;19917;-76
2024/03/09 13:11:33;;;;;;;;;;;14.90;1.00;;;;;;5048139;28;19960;-76
2024/03/09 13:14:09;;;;;;;;;;;14.90;1.00;;;;;;5048084;28;19920;-76
2024/03/09 13:16:51;;;;;;;;;;;14.80;1.00;;;;;;5034825;28;19944;-76
2024/03/09 13:19:33;;;;;;;;;;;14.80;1.00;;;;;;5038875;28;20368;-76
2024/03/09 13:21:59;;;;;;;;;;;14.80;1.00;;;;;;5034581;28;20003;-74
2024/03/09 13:24:24;;;;;;;;;;;14.90;1.00;;;;;;5016832;28;19952;-74
2024/03/09 13:26:51;;;;;;;;;;;15.00;1.00;;;;;;5050384;28;19917;-74
2024/03/09 13:29:20;;;;;;;;;;;15.00;1.00;;;;;;5035078;28;20365;-74
2024/03/09 13:31:49;;;;;;;;;;;15.10;1.00;;;;;;5038808;28;19960;-74
2024/03/09 13:34:21;;;;;;;;;;;15.20;1.00;;;;;;5047074;28;19917;-74
2024/03/09 13:36:53;;;;;;;;;;;15.50;1.00;;;;;;5039282;28;19996;-74
2024/03/09 13:39:34;;;;;;;;;;;15.60;1.00;;;;;;5034157;28;19921;-74
2024/03/09 13:42:08;;;;;;;;;;;15.70;1.00;;;;;;5044178;28;19968;-74
2024/03/09 13:44:39;;;;;;;;;;;15.80;1.00;;;;;;5047335;28;19913;-74
2024/03/09 13:47:05;;;;;;;;;;;15.80;1.00;;;;;;5031268;28;19909;-74
2024/03/09 13:49:30;;;;;;;;;;;15.70;1.00;;;;;;5035619;28;19913;-74
2024/03/09 13:51:59;;;;;;;;;;;15.70;1.00;;;;;;5034475;28;19913;-74
2024/03/09 13:54:24;;;;;;;;;;;15.70;1.00;;;;;;5033987;28;20379;-74
2024/03/09 13:56:50;;;;;;;;;;;15.80;1.00;;;;;;5033727;28;19909;-74
2024/03/09 13:59:16;;;;;;;;;;;15.80;1.00;;;;;;5033682;28;19983;-74
2024/03/09 14:01:45;;;;;;;;;;;15.90;1.00;;;;;;5036115;28;20348;-74
2024/03/09 14:04:34;;;;;;;;;;;15.90;1.00;;;;;;5054132;28;19932;-74
2024/03/09 14:07:03;;;;;;;;;;;15.90;1.00;;;;;;5040731;28;19913;-76
2024/03/09 14:09:53;;;;;;;;;;;15.90;1.00;;;;;;5041346;28;19939;-76
2024/03/09 14:18:28;;;;;;;;;;;15.70;1.00;;;;;;5047129;28;19963;-76
2024/03/09 14:21:17;;;;;;;;;;;15.70;1.00;;;;;;5046786;28;19916;-76
2024/03/09 14:24:05;;;;;;;;;;;15.60;1.00;;;;;;5033834;28;19976;-76
2024/03/09 14:26:45;;;;;;;;;;;15.70;1.00;;;;;;5047387;28;20437;-76
2024/03/09 14:29:12;;;;;;;;;;;15.80;1.00;;;;;;5020435;28;19920;-76
2024/03/09 14:32:17;;;;;;;;;;;15.90;1.00;;;;;;5046202;28;19920;-76
2024/03/09 14:37:58;;;;;;;;;;;16.50;1.00;;;;;;5009674;28;19910;-77
2024/03/09 14:46:29;;;;;;;;;;;17.10;1.00;;;;;;4995732;28;20299;-76
2024/03/09 14:51:58;;;;;;;;;;;17.20;1.00;;;;;;5009025;28;19917;-74
2024/03/09 14:54:24;;;;;;;;;;;17.20;1.00;;;;;;4996013;28;19909;-74
2024/03/09 14:56:50;;;;;;;;;;;17.20;1.00;;;;;;5008794;28;20277;-74
2024/03/09 14:59:15;;;;;;;;;;;17.10;1.00;;;;;;4991841;28;19914;-75
2024/03/09 15:01:43;;;;;;;;;;;17.10;1.00;;;;;;5005958;28;19955;-76
2024/03/09 15:04:09;;;;;;;;;;;17.00;1.00;;;;;;5004484;28;19917;-75
2024/03/09 15:06:40;;;;;;;;;;;16.90;1.00;;;;;;4998565;28;19909;-75
2024/03/09 15:09:27;;;;;;;;;;;16.50;1.00;;;;;;4995432;28;19917;-76
2024/03/09 15:12:09;;;;;;;;;;;16.50;1.00;;;;;;4991573;28;19934;-76
2024/03/09 15:14:39;;;;;;;;;;;16.40;1.00;;;;;;5010974;28;19944;-76
2024/03/09 15:17:09;;;;;;;;;;;16.30;1.00;;;;;;5046928;28;19909;-76
2024/03/09 15:19:34;;;;;;;;;;;16.10;1.00;;;;;;5040278;28;20407;-76
2024/03/09 15:22:00;;;;;;;;;;;15.90;1.00;;;;;;5042195;28;19917;-75
2024/03/09 15:24:26;;;;;;;;;;;15.90;1.00;;;;;;5033356;28;19917;-75
2024/03/09 15:26:53;;;;;;;;;;;15.80;1.00;;;;;;5036174;28;19913;-74
2024/03/09 15:29:18;;;;;;;;;;;15.70;1.00;;;;;;5052536;28;19920;-74
2024/03/09 15:31:44;;;;;;;;;;;15.70;1.00;;;;;;5046013;28;19917;-74
2024/03/09 15:34:10;;;;;;;;;;;15.70;1.00;;;;;;5036057;28;19921;-75
2024/03/09 15:36:45;;;;;;;;;;;15.70;1.00;;;;;;5047325;28;19909;-75
2024/03/09 15:39:13;;;;;;;;;;;15.60;1.00;;;;;;5022624;28;20281;-75
2024/03/09 15:41:51;;;;;;;;;;;15.70;1.00;;;;;;5036842;28;19940;-75
2024/03/09 15:44:20;;;;;;;;;;;15.70;1.00;;;;;;5036501;28;19917;-75
2024/03/09 15:46:46;;;;;;;;;;;15.80;1.00;;;;;;5036238;28;19909;-74
2024/03/09 15:49:11;;;;;;;;;;;15.90;1.00;;;;;;5044286;28;19913;-74
2024/03/09 15:51:39;;;;;;;;;;;16.00;1.00;;;;;;5037476;28;19920;-75
2024/03/09 15:54:05;;;;;;;;;;;16.10;1.00;;;;;;5025107;28;20439;-74
2024/03/09 15:56:39;;;;;;;;;;;16.10;1.00;;;;;;5050000;28;19995;-74
2024/03/09 15:59:15;;;;;;;;;;;16.20;1.00;;;;;;5035877;28;19917;-73
2024/03/09 16:01:52;;;;;;;;;;;16.40;1.00;;;;;;5041185;28;20299;-75
2024/03/09 16:04:39;;;;;;;;;;;16.40;1.00;;;;;;5019957;28;19936;-75
2024/03/09 16:07:04;;;;;;;;;;;16.60;1.00;;;;;;5036142;28;19990;-74
2024/03/09 16:09:39;;;;;;;;;;;16.60;1.00;;;;;;5040529;28;19917;-75
2024/03/09 16:12:10;;;;;;;;;;;16.60;1.00;;;;;;5046611;28;19909;-75
2024/03/09 16:14:37;;;;;;;;;;;16.60;1.00;;;;;;5049159;28;19992;-78
2024/03/09 16:17:21;;;;;;;;;;;16.60;1.00;;;;;;5046313;28;20352;-75
2024/03/09 16:19:47;;;;;;;;;;;16.50;1.00;;;;;;5042411;28;19917;-76
2024/03/09 16:22:13;;;;;;;;;;;16.40;1.00;;;;;;5033785;28;19913;-75
2024/03/09 16:24:46;;;;;;;;;;;16.30;1.00;;;;;;5030206;28;20391;-75
2024/03/09 16:27:12;;;;;;;;;;;16.10;1.00;;;;;;5050133;28;19909;-75
2024/03/09 16:29:41;;;;;;;;;;;16.00;1.00;;;;;;5037361;28;19921;-75
2024/03/09 16:32:14;;;;;;;;;;;15.90;1.00;;;;;;5048676;28;19936;-75
2024/03/09 16:34:45;;;;;;;;;;;15.80;1.00;;;;;;5044717;28;19913;-79
2024/03/09 16:43:33;;;;;;;;;;;15.20;1.00;;;;;;5035239;28;19916;-78
2024/03/09 16:52:39;;;;;;;;;;;14.70;1.00;;;;;;5035035;28;19916;-78
2024/03/09 16:55:36;;;;;;;;;;;14.50;1.00;;;;;;5042070;28;20026;-75
2024/03/09 16:58:04;;;;;;;;;;;14.30;1.00;;;;;;5041293;28;19909;-74
2024/03/09 17:00:34;;;;;;;;;;;14.10;1.00;;;;;;5046066;28;19913;-75
2024/03/09 17:03:00;;;;;;;;;;;14.00;1.00;;;;;;5033013;28;19964;-77
2024/03/09 17:09:10;;;;;;;;;;;13.80;1.00;;;;;;5041121;28;19947;-78
2024/03/09 17:14:39;;;;;;;;;;;13.40;1.00;;;;;;5045795;28;19996;-78
2024/03/09 17:23:10;;;;;;;;;;;13.10;1.00;;;;;;5046984;28;20047;-75
2024/03/09 17:25:37;;;;;;;;;;;13.00;1.00;;;;;;5035775;28;19972;-73
2024/03/09 17:28:06;;;;;;;;;;;12.90;1.00;;;;;;5036147;28;19913;-74
2024/03/09 17:30:32;;;;;;;;;;;12.80;1.00;;;;;;5040712;28;19917;-73
2024/03/09 17:33:04;;;;;;;;;;;12.70;1.00;;;;;;5042718;28;19919;-73
2024/03/09 17:35:40;;;;;;;;;;;12.60;1.00;;;;;;5040590;28;19915;-77
2024/03/09 17:38:12;;;;;;;;;;;12.60;1.00;;;;;;5043249;28;20008;-76
2024/03/09 17:40:46;;;;;;;;;;;12.60;1.00;;;;;;5053019;28;19975;-76
2024/03/09 17:49:27;;;;;;;;;;;12.40;1.00;;;;;;5034294;28;20294;-76
2024/03/09 17:51:53;;;;;;;;;;;12.30;1.00;;;;;;5033900;28;19909;-76
2024/03/09 17:54:19;;;;;;;;;;;12.30;1.00;;;;;;5034563;28;19913;-73
2024/03/09 17:56:46;;;;;;;;;;;12.20;1.00;;;;;;5050959;28;19909;-72
2024/03/09 17:59:12;;;;;;;;;;;12.20;1.00;;;;;;5038052;28;19914;-72
2024/03/09 18:01:58;;;;;;;;;;;12.10;1.00;;;;;;5033747;28;19913;-73
2024/03/09 18:04:27;;;;;;;;;;;12.10;1.00;;;;;;5037453;28;19944;-75
2024/03/09 18:07:15;;;;;;;;;;;12.10;1.00;;;;;;5033982;28;19909;-76
2024/03/09 18:09:58;;;;;;;;;;;12.10;1.00;;;;;;5049983;28;19916;-82
2024/03/09 18:15:32;;;;;;;;;;;12.00;1.00;;;;;;5044169;28;19924;-82
2024/03/09 18:18:14;;;;;;;;;;;8.90;1.00;;;;;;5112100;27;19918;-80
2024/03/09 18:27:15;;;;;;;;;;;11.70;1.00;;;;;;5101796;28;19919;-81
2024/03/09 18:29:41;;;;;;;;;;;11.70;1.00;;;;;;5120814;28;19951;-80
2024/03/09 18:32:10;;;;;;;;;;;11.60;1.00;;;;;;5132028;28;19907;-77
2024/03/09 18:34:39;;;;;;;;;;;11.50;1.00;;;;;;5112044;28;19940;-79
2024/03/09 18:37:09;;;;;;;;;;;11.50;1.00;;;;;;5111379;28;19923;-78
2024/03/09 18:39:39;;;;;;;;;;;11.50;1.00;;;;;;5119455;28;19922;-77
2024/03/09 18:42:28;;;;;;;;;;;11.50;1.00;;;;;;5111389;28;19919;-78
2024/03/09 18:45:16;;;;;;;;;;;11.40;1.00;;;;;;5111607;28;19908;-77
2024/03/09 18:50:45;;;;;;;;;;;11.40;1.00;;;;;;5098385;28;19922;-78
2024/03/09 18:53:27;;;;;;;;;;;11.40;1.00;;;;;;5104706;28;19908;-79
2024/03/09 18:55:53;;;;;;;;;;;11.40;1.00;;;;;;5101148;28;19908;-73
2024/03/09 18:58:19;;;;;;;;;;;11.40;1.00;;;;;;5107500;28;19912;-73
2024/03/09 19:00:45;;;;;;;;;;;11.40;1.00;;;;;;5124533;28;19916;-73
2024/03/09 19:03:11;;;;;;;;;;;11.40;1.00;;;;;;5112515;27;19912;-73
2024/03/09 19:06:04;;;;;;;;;;;11.40;1.00;;;;;;5101235;28;20366;-73
2024/03/09 19:08:33;;;;;;;;;;;11.40;1.00;;;;;;5110015;28;20348;-73
2024/03/09 19:11:10;;;;;;;;;;;11.20;1.00;;;;;;5115076;28;19912;-74
2024/03/09 19:13:36;;;;;;;;;;;11.20;1.00;;;;;;5119202;28;19912;-72
2024/03/09 19:16:02;;;;;;;;;;;11.20;1.00;;;;;;5109130;28;20393;-72
2024/03/09 19:18:28;;;;;;;;;;;11.00;1.00;;;;;;5090514;28;20049;-72
2024/03/09 19:20:54;;;;;;;;;;;11.00;1.00;;;;;;5092465;28;19954;-72